sensor_id;sensor_type;location;lat;lon;timestamp;temperature;humidity
3268;DHT22;1646;52.450;13.326;2022-09-09T00:04:20;17.10;99.90
3268;DHT22;1646;52.450;13.326;2022-09-09T00:09:23;17.00;99.90
3268;DHT22;1646;52.450;13.326;2022-09-09T00:14:34;17.00;99.90
3268;DHT22;1646;52.450;13.326;2022-09-09T00:19:38;16.90;99.90
3268;DHT22;1646;52.450;13.326;2022-09-09T00:24:43;16.90;99.90
3268;DHT22;1646;52.450;13.326;2022-09-09T00:29:50;16.90;99.90
3268;DHT22;1646;52.450;13.326;2022-09-09T00:34:52;16.80;99.90
3268;DHT22;1646;52.450;13.326;2022-09-09T00:39:55;16.80;99.90
3268;DHT22;1646;52.450;13.326;2022-09-09T00:45:02;16.70;99.90
3268;DHT22;1646;52.450;13.326;2022-09-09T00:50:22;16.60;99.90
3268;DHT22;1646;52.450;13.326;2022-09-09T00:55:28;16.60;99.90
3268;DHT22;1646;52.450;13.326;2022-09-09T01:00:37;16.50;99.90
3268;DHT22;1646;52.450;13.326;2022-09-09T01:05:44;16.50;99.90
3268;DHT22;1646;52.450;13.326;2022-09-09T01:10:49;16.50;99.90
3268;DHT22;1646;52.450;13.326;2022-09-09T01:15:51;16.40;99.90
3268;DHT22;1646;52.450;13.326;2022-09-09T01:21:05;16.40;99.90
3268;DHT22;1646;52.450;13.326;2022-09-09T01:26:19;16.40;99.90
3268;DHT22;1646;52.450;13.326;2022-09-09T01:31:23;16.30;99.90
3268;DHT22;1646;52.450;13.326;2022-09-09T01:36:29;16.30;99.90
3268;DHT22;1646;52.450;13.326;2022-09-09T01:41:31;16.30;99.90
3268;DHT22;1646;52.450;13.326;2022-09-09T01:46:36;16.30;99.90
3268;DHT22;1646;52.450;13.326;2022-09-09T01:51:39;16.20;99.90
3268;DHT22;1646;52.450;13.326;2022-09-09T01:56:50;16.20;99.90
3268;DHT22;1646;52.450;13.326;2022-09-09T02:02:06;16.20;99.90
3268;DHT22;1646;52.450;13.326;2022-09-09T02:07:21;16.20;99.90
3268;DHT22;1646;52.450;13.326;2022-09-09T02:12:24;16.10;99.90
3268;DHT22;1646;52.450;13.326;2022-09-09T02:17:28;16.10;99.90
3268;DHT22;1646;52.450;13.326;2022-09-09T02:22:35;16.10;99.90
3268;DHT22;1646;52.450;13.326;2022-09-09T02:27:39;16.00;99.90
3268;DHT22;1646;52.450;13.326;2022-09-09T02:32:39;16.00;99.90
3268;DHT22;1646;52.450;13.326;2022-09-09T02:37:42;16.00;99.90
3268;DHT22;1646;52.450;13.326;2022-09-09T02:42:46;16.00;99.90
3268;DHT22;1646;52.450;13.326;2022-09-09T02:47:51;16.00;99.90
3268;DHT22;1646;52.450;13.326;2022-09-09T02:53:05;16.00;99.90
3268;DHT22;1646;52.450;13.326;2022-09-09T02:58:11;16.00;99.90
3268;DHT22;1646;52.450;13.326;2022-09-09T03:03:18;16.00;99.90
3268;DHT22;1646;52.450;13.326;2022-09-09T03:08:20;15.90;99.90
3268;DHT22;1646;52.450;13.326;2022-09-09T03:13:19;15.90;99.90
3268;DHT22;1646;52.450;13.326;2022-09-09T03:18:19;15.90;99.90
3268;DHT22;1646;52.450;13.326;2022-09-09T03:23:21;15.80;99.90
3268;DHT22;1646;52.450;13.326;2022-09-09T03:28:22;15.80;99.90
3268;DHT22;1646;52.450;13.326;2022-09-09T03:33:20;15.80;99.90
3268;DHT22;1646;52.450;13.326;2022-09-09T03:38:18;15.70;99.90
3268;DHT22;1646;52.450;13.326;2022-09-09T03:43:16;15.70;99.90
3268;DHT22;1646;52.450;13.326;2022-09-09T03:48:17;15.70;99.90
3268;DHT22;1646;52.450;13.326;2022-09-09T03:53:17;15.70;99.90
3268;DHT22;1646;52.450;13.326;2022-09-09T03:58:16;15.70;99.90
3268;DHT22;1646;52.450;13.326;2022-09-09T04:03:17;15.60;99.90
3268;DHT22;1646;52.450;13.326;2022-09-09T04:08:15;15.60;99.90
3268;DHT22;1646;52.450;13.326;2022-09-09T04:13:14;15.60;99.90
3268;DHT22;1646;52.450;13.326;2022-09-09T04:18:14;15.60;99.90
3268;DHT22;1646;52.450;13.326;2022-09-09T04:23:20;15.60;99.90
3268;DHT22;1646;52.450;13.326;2022-09-09T04:28:20;15.60;99.90
3268;DHT22;1646;52.450;13.326;2022-09-09T04:33:19;15.60;99.90
3268;DHT22;1646;52.450;13.326;2022-09-09T04:38:22;15.60;99.90
3268;DHT22;1646;52.450;13.326;2022-09-09T04:43:21;15.60;99.90
3268;DHT22;1646;52.450;13.326;2022-09-09T04:48:20;15.60;99.90
3268;DHT22;1646;52.450;13.326;2022-09-09T04:53:19;15.60;99.90
3268;DHT22;1646;52.450;13.326;2022-09-09T04:58:19;15.60;99.90
3268;DHT22;1646;52.450;13.326;2022-09-09T05:03:19;15.60;99.90
3268;DHT22;1646;52.450;13.326;2022-09-09T05:08:17;15.60;99.90
3268;DHT22;1646;52.450;13.326;2022-09-09T05:13:15;15.70;99.90
3268;DHT22;1646;52.450;13.326;2022-09-09T05:18:14;15.80;99.90
3268;DHT22;1646;52.450;13.326;2022-09-09T05:23:13;15.90;99.90
3268;DHT22;1646;52.450;13.326;2022-09-09T05:28:12;16.00;99.90
3268;DHT22;1646;52.450;13.326;2022-09-09T05:33:10;16.10;99.90
3268;DHT22;1646;52.450;13.326;2022-09-09T05:38:09;16.10;99.90
3268;DHT22;1646;52.450;13.326;2022-09-09T05:43:07;16.10;99.90
3268;DHT22;1646;52.450;13.326;2022-09-09T05:48:06;16.20;99.90
3268;DHT22;1646;52.450;13.326;2022-09-09T05:53:04;16.30;99.90
3268;DHT22;1646;52.450;13.326;2022-09-09T05:58:03;16.30;99.90
3268;DHT22;1646;52.450;13.326;2022-09-09T06:03:02;16.30;99.90
3268;DHT22;1646;52.450;13.326;2022-09-09T06:08:00;16.40;99.90
3268;DHT22;1646;52.450;13.326;2022-09-09T06:12:59;16.50;99.90
3268;DHT22;1646;52.450;13.326;2022-09-09T06:17:59;16.60;99.90
3268;DHT22;1646;52.450;13.326;2022-09-09T06:22:57;16.80;99.90
3268;DHT22;1646;52.450;13.326;2022-09-09T06:27:56;16.90;99.90
3268;DHT22;1646;52.450;13.326;2022-09-09T06:32:55;16.90;99.90
3268;DHT22;1646;52.450;13.326;2022-09-09T06:37:56;17.00;99.90
3268;DHT22;1646;52.450;13.326;2022-09-09T06:42:59;17.10;99.90
3268;DHT22;1646;52.450;13.326;2022-09-09T06:48:09;17.20;99.90
3268;DHT22;1646;52.450;13.326;2022-09-09T06:53:08;17.30;99.90
3268;DHT22;1646;52.450;13.326;2022-09-09T06:58:08;17.40;99.90
3268;DHT22;1646;52.450;13.326;2022-09-09T07:03:07;17.70;99.90
3268;DHT22;1646;52.450;13.326;2022-09-09T07:08:06;17.90;99.90
3268;DHT22;1646;52.450;13.326;2022-09-09T07:13:05;18.10;99.90
3268;DHT22;1646;52.450;13.326;2022-09-09T07:18:04;18.00;99.90
3268;DHT22;1646;52.450;13.326;2022-09-09T07:23:03;18.10;99.90
3268;DHT22;1646;52.450;13.326;2022-09-09T07:28:01;18.20;99.90
3268;DHT22;1646;52.450;13.326;2022-09-09T07:33:01;18.40;99.90
3268;DHT22;1646;52.450;13.326;2022-09-09T07:38:00;18.80;99.90
3268;DHT22;1646;52.450;13.326;2022-09-09T07:42:59;19.20;99.90
3268;DHT22;1646;52.450;13.326;2022-09-09T07:47:57;19.60;99.90
3268;DHT22;1646;52.450;13.326;2022-09-09T07:52:57;20.00;99.90
3268;DHT22;1646;52.450;13.326;2022-09-09T07:57:56;20.20;99.90
3268;DHT22;1646;52.450;13.326;2022-09-09T08:02:54;20.40;99.90
3268;DHT22;1646;52.450;13.326;2022-09-09T08:07:52;20.60;99.90
3268;DHT22;1646;52.450;13.326;2022-09-09T08:12:52;20.30;99.90
3268;DHT22;1646;52.450;13.326;2022-09-09T08:18:10;20.10;99.90
3268;DHT22;1646;52.450;13.326;2022-09-09T08:23:08;20.00;99.90
3268;DHT22;1646;52.450;13.326;2022-09-09T08:28:07;20.00;99.90
3268;DHT22;1646;52.450;13.326;2022-09-09T08:33:09;20.00;99.90
3268;DHT22;1646;52.450;13.326;2022-09-09T08:38:07;20.10;99.90
3268;DHT22;1646;52.450;13.326;2022-09-09T08:43:09;20.10;99.90
3268;DHT22;1646;52.450;13.326;2022-09-09T08:48:26;20.10;99.90
3268;DHT22;1646;52.450;13.326;2022-09-09T08:53:28;20.30;99.90
3268;DHT22;1646;52.450;13.326;2022-09-09T08:58:32;20.50;99.90
3268;DHT22;1646;52.450;13.326;2022-09-09T09:03:42;20.60;99.90
3268;DHT22;1646;52.450;13.326;2022-09-09T09:08:46;20.90;99.90
3268;DHT22;1646;52.450;13.326;2022-09-09T09:13:54;21.50;99.90
3268;DHT22;1646;52.450;13.326;2022-09-09T09:18:56;22.20;99.90
3268;DHT22;1646;52.450;13.326;2022-09-09T09:23:57;23.00;99.90
3268;DHT22;1646;52.450;13.326;2022-09-09T09:28:59;25.30;99.90
3268;DHT22;1646;52.450;13.326;2022-09-09T09:33:59;27.40;99.90
3268;DHT22;1646;52.450;13.326;2022-09-09T09:39:01;28.50;99.90
3268;DHT22;1646;52.450;13.326;2022-09-09T09:44:27;29.80;99.90
3268;DHT22;1646;52.450;13.326;2022-09-09T09:49:33;31.00;99.90
3268;DHT22;1646;52.450;13.326;2022-09-09T09:54:33;31.10;97.30
3268;DHT22;1646;52.450;13.326;2022-09-09T09:59:36;31.10;96.20
3268;DHT22;1646;52.450;13.326;2022-09-09T10:04:46;30.60;94.20
3268;DHT22;1646;52.450;13.326;2022-09-09T10:09:48;29.60;96.60
3268;DHT22;1646;52.450;13.326;2022-09-09T10:14:56;28.40;98.50
3268;DHT22;1646;52.450;13.326;2022-09-09T10:20:20;29.40;97.50
3268;DHT22;1646;52.450;13.326;2022-09-09T10:25:27;29.10;97.60
3268;DHT22;1646;52.450;13.326;2022-09-09T10:30:35;28.40;97.00
3268;DHT22;1646;52.450;13.326;2022-09-09T10:35:41;27.20;99.80
3268;DHT22;1646;52.450;13.326;2022-09-09T10:41:00;27.70;99.90
3268;DHT22;1646;52.450;13.326;2022-09-09T10:46:10;28.30;98.30
3268;DHT22;1646;52.450;13.326;2022-09-09T10:51:21;26.80;99.90
3268;DHT22;1646;52.450;13.326;2022-09-09T10:56:21;27.70;99.90
3268;DHT22;1646;52.450;13.326;2022-09-09T11:01:26;28.60;98.70
3268;DHT22;1646;52.450;13.326;2022-09-09T11:06:31;28.40;99.40
3268;DHT22;1646;52.450;13.326;2022-09-09T11:11:34;28.20;99.70
3268;DHT22;1646;52.450;13.326;2022-09-09T11:16:39;28.00;98.50
3268;DHT22;1646;52.450;13.326;2022-09-09T11:21:43;27.20;97.90
3268;DHT22;1646;52.450;13.326;2022-09-09T11:26:47;26.70;99.90
3268;DHT22;1646;52.450;13.326;2022-09-09T11:31:58;27.00;99.90
3268;DHT22;1646;52.450;13.326;2022-09-09T11:42:35;27.10;99.60
3268;DHT22;1646;52.450;13.326;2022-09-09T11:47:35;27.00;99.90
3268;DHT22;1646;52.450;13.326;2022-09-09T11:52:37;27.50;99.90
3268;DHT22;1646;52.450;13.326;2022-09-09T11:57:36;27.50;98.50
3268;DHT22;1646;52.450;13.326;2022-09-09T12:02:35;27.50;99.30
3268;DHT22;1646;52.450;13.326;2022-09-09T12:07:35;28.00;99.80
3268;DHT22;1646;52.450;13.326;2022-09-09T12:12:37;28.10;96.40
3268;DHT22;1646;52.450;13.326;2022-09-09T12:17:44;28.10;95.50
3268;DHT22;1646;52.450;13.326;2022-09-09T12:28:08;28.30;96.50
3268;DHT22;1646;52.450;13.326;2022-09-09T12:33:11;27.70;94.70
3268;DHT22;1646;52.450;13.326;2022-09-09T12:38:15;26.90;96.50
3268;DHT22;1646;52.450;13.326;2022-09-09T12:43:18;26.50;96.50
3268;DHT22;1646;52.450;13.326;2022-09-09T12:48:20;26.30;97.30
3268;DHT22;1646;52.450;13.326;2022-09-09T12:53:23;25.90;97.70
3268;DHT22;1646;52.450;13.326;2022-09-09T12:58:23;25.60;98.80
3268;DHT22;1646;52.450;13.326;2022-09-09T13:03:23;25.50;99.10
3268;DHT22;1646;52.450;13.326;2022-09-09T13:08:22;25.20;99.30
3268;DHT22;1646;52.450;13.326;2022-09-09T13:13:23;25.00;99.90
3268;DHT22;1646;52.450;13.326;2022-09-09T13:18:27;24.70;99.90
3268;DHT22;1646;52.450;13.326;2022-09-09T13:23:28;24.40;99.90
3268;DHT22;1646;52.450;13.326;2022-09-09T13:28:27;24.40;99.90
3268;DHT22;1646;52.450;13.326;2022-09-09T13:33:33;24.40;99.90
3268;DHT22;1646;52.450;13.326;2022-09-09T13:38:37;24.60;99.90
3268;DHT22;1646;52.450;13.326;2022-09-09T13:43:38;24.80;99.90
3268;DHT22;1646;52.450;13.326;2022-09-09T13:48:37;25.20;99.90
3268;DHT22;1646;52.450;13.326;2022-09-09T13:53:37;25.30;99.90
3268;DHT22;1646;52.450;13.326;2022-09-09T13:58:35;25.60;99.90
3268;DHT22;1646;52.450;13.326;2022-09-09T14:03:33;25.80;99.90
3268;DHT22;1646;52.450;13.326;2022-09-09T14:08:33;26.00;99.90
3268;DHT22;1646;52.450;13.326;2022-09-09T14:18:39;26.60;97.60
3268;DHT22;1646;52.450;13.326;2022-09-09T14:23:39;26.60;95.10
3268;DHT22;1646;52.450;13.326;2022-09-09T14:28:37;26.40;95.50
3268;DHT22;1646;52.450;13.326;2022-09-09T14:33:52;26.50;96.60
3268;DHT22;1646;52.450;13.326;2022-09-09T14:38:52;26.20;98.20
3268;DHT22;1646;52.450;13.326;2022-09-09T14:43:50;25.80;99.40
3268;DHT22;1646;52.450;13.326;2022-09-09T14:48:48;25.30;99.90
3268;DHT22;1646;52.450;13.326;2022-09-09T14:53:47;24.90;99.90
3268;DHT22;1646;52.450;13.326;2022-09-09T14:58:46;24.80;99.90
3268;DHT22;1646;52.450;13.326;2022-09-09T15:03:49;24.80;99.90
3268;DHT22;1646;52.450;13.326;2022-09-09T15:08:47;24.60;99.90
3268;DHT22;1646;52.450;13.326;2022-09-09T15:13:51;24.70;99.90
3268;DHT22;1646;52.450;13.326;2022-09-09T15:18:51;24.80;99.90
3268;DHT22;1646;52.450;13.326;2022-09-09T15:23:51;25.00;99.90
3268;DHT22;1646;52.450;13.326;2022-09-09T15:28:50;25.40;98.60
3268;DHT22;1646;52.450;13.326;2022-09-09T15:33:49;25.40;99.20
3268;DHT22;1646;52.450;13.326;2022-09-09T15:38:47;25.60;99.50
3268;DHT22;1646;52.450;13.326;2022-09-09T15:43:46;25.80;99.50
3268;DHT22;1646;52.450;13.326;2022-09-09T15:48:46;26.20;99.70
3268;DHT22;1646;52.450;13.326;2022-09-09T15:53:53;26.50;99.10
3268;DHT22;1646;52.450;13.326;2022-09-09T15:58:52;26.90;97.90
3268;DHT22;1646;52.450;13.326;2022-09-09T16:03:52;27.30;98.50
3268;DHT22;1646;52.450;13.326;2022-09-09T16:08:52;27.60;96.90
3268;DHT22;1646;52.450;13.326;2022-09-09T16:13:52;27.10;96.50
3268;DHT22;1646;52.450;13.326;2022-09-09T16:18:53;27.00;96.60
3268;DHT22;1646;52.450;13.326;2022-09-09T16:23:52;26.70;97.30
3268;DHT22;1646;52.450;13.326;2022-09-09T16:28:50;26.20;94.70
3268;DHT22;1646;52.450;13.326;2022-09-09T16:33:52;25.50;95.90
3268;DHT22;1646;52.450;13.326;2022-09-09T16:38:52;25.00;96.20
3268;DHT22;1646;52.450;13.326;2022-09-09T16:43:52;24.70;97.30
3268;DHT22;1646;52.450;13.326;2022-09-09T16:48:52;24.50;98.70
3268;DHT22;1646;52.450;13.326;2022-09-09T16:53:51;24.40;99.90
3268;DHT22;1646;52.450;13.326;2022-09-09T16:58:51;24.30;99.90
3268;DHT22;1646;52.450;13.326;2022-09-09T17:03:53;24.20;99.90
3268;DHT22;1646;52.450;13.326;2022-09-09T17:08:57;24.00;99.90
3268;DHT22;1646;52.450;13.326;2022-09-09T17:13:57;23.80;99.90
3268;DHT22;1646;52.450;13.326;2022-09-09T17:18:57;23.40;99.90
3268;DHT22;1646;52.450;13.326;2022-09-09T17:23:57;23.00;99.90
3268;DHT22;1646;52.450;13.326;2022-09-09T17:28:56;22.80;99.90
3268;DHT22;1646;52.450;13.326;2022-09-09T17:33:57;22.70;99.90
3268;DHT22;1646;52.450;13.326;2022-09-09T17:38:56;22.50;99.90
3268;DHT22;1646;52.450;13.326;2022-09-09T17:43:54;22.30;99.90
3268;DHT22;1646;52.450;13.326;2022-09-09T17:48:57;22.00;99.90
3268;DHT22;1646;52.450;13.326;2022-09-09T17:53:59;21.70;99.90
3268;DHT22;1646;52.450;13.326;2022-09-09T17:58:58;21.40;99.90
3268;DHT22;1646;52.450;13.326;2022-09-09T18:04:00;21.30;99.90
3268;DHT22;1646;52.450;13.326;2022-09-09T18:08:59;21.20;99.90
3268;DHT22;1646;52.450;13.326;2022-09-09T18:14:00;21.00;99.90
3268;DHT22;1646;52.450;13.326;2022-09-09T18:18:59;20.80;99.90
3268;DHT22;1646;52.450;13.326;2022-09-09T18:24:00;20.80;99.90
3268;DHT22;1646;52.450;13.326;2022-09-09T18:29:00;20.70;99.90
3268;DHT22;1646;52.450;13.326;2022-09-09T18:34:02;20.70;99.90
3268;DHT22;1646;52.450;13.326;2022-09-09T18:39:01;20.60;99.90
3268;DHT22;1646;52.450;13.326;2022-09-09T18:44:03;20.40;99.90
3268;DHT22;1646;52.450;13.326;2022-09-09T18:49:02;20.20;99.90
3268;DHT22;1646;52.450;13.326;2022-09-09T18:54:02;20.10;99.90
3268;DHT22;1646;52.450;13.326;2022-09-09T18:59:02;20.00;99.90
3268;DHT22;1646;52.450;13.326;2022-09-09T19:04:03;20.00;99.90
3268;DHT22;1646;52.450;13.326;2022-09-09T19:09:03;20.00;99.90
3268;DHT22;1646;52.450;13.326;2022-09-09T19:14:03;19.70;99.90
3268;DHT22;1646;52.450;13.326;2022-09-09T19:19:05;19.60;99.90
3268;DHT22;1646;52.450;13.326;2022-09-09T19:24:09;19.60;99.90
3268;DHT22;1646;52.450;13.326;2022-09-09T19:29:09;19.60;99.90
3268;DHT22;1646;52.450;13.326;2022-09-09T19:34:12;19.50;99.90
3268;DHT22;1646;52.450;13.326;2022-09-09T19:39:10;19.50;99.90
3268;DHT22;1646;52.450;13.326;2022-09-09T19:44:11;19.50;99.90
3268;DHT22;1646;52.450;13.326;2022-09-09T19:49:11;19.30;99.90
3268;DHT22;1646;52.450;13.326;2022-09-09T19:54:12;19.20;99.90
3268;DHT22;1646;52.450;13.326;2022-09-09T19:59:12;19.10;99.90
3268;DHT22;1646;52.450;13.326;2022-09-09T20:04:13;19.00;99.90
3268;DHT22;1646;52.450;13.326;2022-09-09T20:09:14;19.00;99.90
3268;DHT22;1646;52.450;13.326;2022-09-09T20:14:16;19.00;99.90
3268;DHT22;1646;52.450;13.326;2022-09-09T20:19:15;19.10;99.90
3268;DHT22;1646;52.450;13.326;2022-09-09T20:24:15;19.10;99.90
3268;DHT22;1646;52.450;13.326;2022-09-09T20:29:15;19.20;99.90
3268;DHT22;1646;52.450;13.326;2022-09-09T20:34:17;19.00;99.90
3268;DHT22;1646;52.450;13.326;2022-09-09T20:39:16;18.90;99.90
3268;DHT22;1646;52.450;13.326;2022-09-09T20:44:17;18.80;99.90
3268;DHT22;1646;52.450;13.326;2022-09-09T20:49:18;18.80;99.90
3268;DHT22;1646;52.450;13.326;2022-09-09T20:54:19;18.70;99.90
3268;DHT22;1646;52.450;13.326;2022-09-09T20:59:20;18.60;99.90
3268;DHT22;1646;52.450;13.326;2022-09-09T21:04:20;18.60;99.90
3268;DHT22;1646;52.450;13.326;2022-09-09T21:09:18;18.50;99.90
3268;DHT22;1646;52.450;13.326;2022-09-09T21:14:18;18.50;99.90
3268;DHT22;1646;52.450;13.326;2022-09-09T21:19:16;18.50;99.90
3268;DHT22;1646;52.450;13.326;2022-09-09T21:24:15;18.50;99.90
3268;DHT22;1646;52.450;13.326;2022-09-09T21:29:14;18.50;99.90
3268;DHT22;1646;52.450;13.326;2022-09-09T21:34:12;18.40;99.90
3268;DHT22;1646;52.450;13.326;2022-09-09T21:39:11;18.20;99.90
3268;DHT22;1646;52.450;13.326;2022-09-09T21:44:10;18.10;99.90
3268;DHT22;1646;52.450;13.326;2022-09-09T21:49:10;18.00;99.90
3268;DHT22;1646;52.450;13.326;2022-09-09T21:54:08;18.00;99.90
3268;DHT22;1646;52.450;13.326;2022-09-09T21:59:06;17.90;99.90
3268;DHT22;1646;52.450;13.326;2022-09-09T22:04:05;17.90;99.90
3268;DHT22;1646;52.450;13.326;2022-09-09T22:09:03;17.80;99.90
3268;DHT22;1646;52.450;13.326;2022-09-09T22:14:01;17.80;99.90
3268;DHT22;1646;52.450;13.326;2022-09-09T22:19:00;17.80;99.90
3268;DHT22;1646;52.450;13.326;2022-09-09T22:24:01;17.90;99.90
3268;DHT22;1646;52.450;13.326;2022-09-09T22:29:00;18.00;99.90
3268;DHT22;1646;52.450;13.326;2022-09-09T22:34:00;17.90;99.90
3268;DHT22;1646;52.450;13.326;2022-09-09T22:39:00;17.90;99.90
3268;DHT22;1646;52.450;13.326;2022-09-09T22:43:58;18.00;99.90
3268;DHT22;1646;52.450;13.326;2022-09-09T22:48:56;18.00;99.90
3268;DHT22;1646;52.450;13.326;2022-09-09T22:53:54;17.90;99.90
3268;DHT22;1646;52.450;13.326;2022-09-09T22:58:55;17.80;99.90
3268;DHT22;1646;52.450;13.326;2022-09-09T23:03:55;17.70;99.90
3268;DHT22;1646;52.450;13.326;2022-09-09T23:08:57;17.60;99.90
3268;DHT22;1646;52.450;13.326;2022-09-09T23:13:59;17.50;99.90
3268;DHT22;1646;52.450;13.326;2022-09-09T23:18:57;17.50;99.90
3268;DHT22;1646;52.450;13.326;2022-09-09T23:23:57;17.40;99.90
3268;DHT22;1646;52.450;13.326;2022-09-09T23:28:58;17.30;99.90
3268;DHT22;1646;52.450;13.326;2022-09-09T23:33:58;17.30;99.90
3268;DHT22;1646;52.450;13.326;2022-09-09T23:38:57;17.20;99.90
3268;DHT22;1646;52.450;13.326;2022-09-09T23:43:57;17.30;99.90
3268;DHT22;1646;52.450;13.326;2022-09-09T23:48:55;17.20;99.90
3268;DHT22;1646;52.450;13.326;2022-09-09T23:53:55;17.20;99.90
3268;DHT22;1646;52.450;13.326;2022-09-09T23:58:53;17.10;99.90
